Terminal Aerodrome Forecast
Issued by NWS

Home | Current Version | Previous Version | Text Only | Print | Product List | Glossary On
Versions: 1 2 3 4 5 6 7 8 9 10 11 12 13 14 15 16 17 18 19 20 21
000
FTUS46 KLOX 072103 AAB
TAFLGB
TAF AMD
KLGB 072103Z 0721/0818 17007KT P6SM FEW023
     FM072230 19007KT P6SM SCT025
     FM080000 30008KT P6SM FEW020
     FM080400 VRB03KT P6SM OVC015
     FM081300 VRB03KT P6SM OVC021=

USA.gov is the U.S. government's official web portal to all federal, state and local government web resources and services.